sensor_id;sensor_type;location;lat;lon;timestamp;P1;durP1;ratioP1;P2;durP2;ratioP2
60464;SDS011;46314;52.392;9.758;2022-09-09T00:01:37;5.43;;;3.88;;
60464;SDS011;46314;52.392;9.758;2022-09-09T00:04:12;5.45;;;3.75;;
60464;SDS011;46314;52.392;9.758;2022-09-09T00:06:43;4.35;;;3.35;;
60464;SDS011;46314;52.392;9.758;2022-09-09T00:09:14;5.32;;;3.28;;
60464;SDS011;46314;52.392;9.758;2022-09-09T00:11:43;4.38;;;3.25;;
60464;SDS011;46314;52.392;9.758;2022-09-09T00:14:13;4.22;;;3.35;;
60464;SDS011;46314;52.392;9.758;2022-09-09T00:16:47;3.72;;;2.90;;
60464;SDS011;46314;52.392;9.758;2022-09-09T00:19:22;3.17;;;2.85;;
60464;SDS011;46314;52.392;9.758;2022-09-09T00:21:55;3.53;;;2.60;;
60464;SDS011;46314;52.392;9.758;2022-09-09T00:24:38;2.78;;;2.58;;
60464;SDS011;46314;52.392;9.758;2022-09-09T00:27:08;6.68;;;2.78;;
60464;SDS011;46314;52.392;9.758;2022-09-09T00:32:19;4.00;;;2.60;;
60464;SDS011;46314;52.392;9.758;2022-09-09T00:34:48;4.80;;;2.50;;
60464;SDS011;46314;52.392;9.758;2022-09-09T00:37:15;6.05;;;2.97;;
60464;SDS011;46314;52.392;9.758;2022-09-09T00:39:45;5.47;;;2.55;;
60464;SDS011;46314;52.392;9.758;2022-09-09T00:42:14;4.45;;;2.65;;
60464;SDS011;46314;52.392;9.758;2022-09-09T00:44:51;5.32;;;2.55;;
60464;SDS011;46314;52.392;9.758;2022-09-09T00:47:35;4.00;;;2.20;;
60464;SDS011;46314;52.392;9.758;2022-09-09T00:50:13;4.57;;;2.30;;
60464;SDS011;46314;52.392;9.758;2022-09-09T00:52:53;4.57;;;2.50;;
60464;SDS011;46314;52.392;9.758;2022-09-09T00:55:31;3.30;;;2.30;;
60464;SDS011;46314;52.392;9.758;2022-09-09T00:58:06;5.45;;;2.15;;
60464;SDS011;46314;52.392;9.758;2022-09-09T01:00:35;4.60;;;2.17;;
60464;SDS011;46314;52.392;9.758;2022-09-09T01:03:18;3.40;;;2.28;;
60464;SDS011;46314;52.392;9.758;2022-09-09T01:06:01;4.40;;;2.00;;
60464;SDS011;46314;52.392;9.758;2022-09-09T01:08:37;3.47;;;1.92;;
60464;SDS011;46314;52.392;9.758;2022-09-09T01:11:14;3.55;;;1.90;;
60464;SDS011;46314;52.392;9.758;2022-09-09T01:13:46;3.15;;;2.10;;
60464;SDS011;46314;52.392;9.758;2022-09-09T01:16:15;2.03;;;1.45;;
60464;SDS011;46314;52.392;9.758;2022-09-09T01:18:44;4.38;;;2.22;;
60464;SDS011;46314;52.392;9.758;2022-09-09T01:21:16;3.13;;;2.03;;
60464;SDS011;46314;52.392;9.758;2022-09-09T01:23:55;3.05;;;1.85;;
60464;SDS011;46314;52.392;9.758;2022-09-09T01:26:36;2.15;;;1.67;;
60464;SDS011;46314;52.392;9.758;2022-09-09T01:29:06;4.88;;;2.00;;
60464;SDS011;46314;52.392;9.758;2022-09-09T01:31:35;3.45;;;1.65;;
60464;SDS011;46314;52.392;9.758;2022-09-09T01:34:07;5.35;;;1.70;;
60464;SDS011;46314;52.392;9.758;2022-09-09T01:36:37;2.13;;;1.48;;
60464;SDS011;46314;52.392;9.758;2022-09-09T01:39:09;3.07;;;1.60;;
60464;SDS011;46314;52.392;9.758;2022-09-09T01:41:37;2.42;;;1.70;;
60464;SDS011;46314;52.392;9.758;2022-09-09T01:44:04;2.55;;;1.67;;
60464;SDS011;46314;52.392;9.758;2022-09-09T01:46:33;3.45;;;1.50;;
60464;SDS011;46314;52.392;9.758;2022-09-09T01:48:59;4.30;;;1.60;;
60464;SDS011;46314;52.392;9.758;2022-09-09T01:51:28;3.90;;;1.30;;
60464;SDS011;46314;52.392;9.758;2022-09-09T01:53:55;6.75;;;2.00;;
60464;SDS011;46314;52.392;9.758;2022-09-09T01:56:26;3.22;;;1.50;;
60464;SDS011;46314;52.392;9.758;2022-09-09T01:59:11;2.67;;;1.85;;
60464;SDS011;46314;52.392;9.758;2022-09-09T02:01:54;3.67;;;1.90;;
60464;SDS011;46314;52.392;9.758;2022-09-09T02:04:34;4.25;;;1.67;;
60464;SDS011;46314;52.392;9.758;2022-09-09T02:07:05;3.40;;;1.40;;
60464;SDS011;46314;52.392;9.758;2022-09-09T02:09:39;5.18;;;1.40;;
60464;SDS011;46314;52.392;9.758;2022-09-09T02:12:11;2.42;;;1.35;;
60464;SDS011;46314;52.392;9.758;2022-09-09T02:14:45;3.70;;;1.20;;
60464;SDS011;46314;52.392;9.758;2022-09-09T02:17:17;3.28;;;1.50;;
60464;SDS011;46314;52.392;9.758;2022-09-09T02:19:50;2.92;;;1.40;;
60464;SDS011;46314;52.392;9.758;2022-09-09T02:22:22;1.98;;;1.23;;
60464;SDS011;46314;52.392;9.758;2022-09-09T02:24:52;1.83;;;1.27;;
60464;SDS011;46314;52.392;9.758;2022-09-09T02:27:22;5.60;;;1.55;;
60464;SDS011;46314;52.392;9.758;2022-09-09T02:29:50;1.55;;;1.42;;
60464;SDS011;46314;52.392;9.758;2022-09-09T02:32:21;3.72;;;1.67;;
60464;SDS011;46314;52.392;9.758;2022-09-09T02:34:50;3.30;;;1.48;;
60464;SDS011;46314;52.392;9.758;2022-09-09T02:37:22;1.90;;;1.50;;
60464;SDS011;46314;52.392;9.758;2022-09-09T02:39:52;3.17;;;1.85;;
60464;SDS011;46314;52.392;9.758;2022-09-09T02:42:19;6.75;;;1.85;;
60464;SDS011;46314;52.392;9.758;2022-09-09T02:44:45;3.30;;;1.27;;
60464;SDS011;46314;52.392;9.758;2022-09-09T02:47:19;3.53;;;1.48;;
60464;SDS011;46314;52.392;9.758;2022-09-09T02:49:55;6.18;;;1.80;;
60464;SDS011;46314;52.392;9.758;2022-09-09T02:52:32;2.53;;;1.27;;
60464;SDS011;46314;52.392;9.758;2022-09-09T02:55:06;2.20;;;1.23;;
60464;SDS011;46314;52.392;9.758;2022-09-09T02:57:38;4.97;;;1.83;;
60464;SDS011;46314;52.392;9.758;2022-09-09T03:00:07;4.30;;;1.60;;
60464;SDS011;46314;52.392;9.758;2022-09-09T03:02:35;3.20;;;1.40;;
60464;SDS011;46314;52.392;9.758;2022-09-09T03:05:02;2.33;;;1.40;;
60464;SDS011;46314;52.392;9.758;2022-09-09T03:07:29;4.43;;;1.40;;
60464;SDS011;46314;52.392;9.758;2022-09-09T03:09:55;3.85;;;1.48;;
60464;SDS011;46314;52.392;9.758;2022-09-09T03:12:22;3.22;;;1.50;;
60464;SDS011;46314;52.392;9.758;2022-09-09T03:14:49;5.20;;;1.73;;
60464;SDS011;46314;52.392;9.758;2022-09-09T03:17:15;1.65;;;1.38;;
60464;SDS011;46314;52.392;9.758;2022-09-09T03:19:43;3.35;;;1.40;;
60464;SDS011;46314;52.392;9.758;2022-09-09T03:22:10;5.10;;;1.77;;
60464;SDS011;46314;52.392;9.758;2022-09-09T03:24:37;3.50;;;1.55;;
60464;SDS011;46314;52.392;9.758;2022-09-09T03:27:03;2.50;;;1.42;;
60464;SDS011;46314;52.392;9.758;2022-09-09T03:29:30;5.15;;;1.90;;
60464;SDS011;46314;52.392;9.758;2022-09-09T03:31:56;2.17;;;1.42;;
60464;SDS011;46314;52.392;9.758;2022-09-09T03:34:23;3.40;;;1.77;;
60464;SDS011;46314;52.392;9.758;2022-09-09T03:36:51;4.45;;;2.00;;
60464;SDS011;46314;52.392;9.758;2022-09-09T03:39:17;3.08;;;2.00;;
60464;SDS011;46314;52.392;9.758;2022-09-09T03:41:44;3.58;;;2.10;;
60464;SDS011;46314;52.392;9.758;2022-09-09T03:44:10;3.65;;;1.75;;
60464;SDS011;46314;52.392;9.758;2022-09-09T03:46:36;2.28;;;1.52;;
60464;SDS011;46314;52.392;9.758;2022-09-09T03:49:03;2.90;;;1.85;;
60464;SDS011;46314;52.392;9.758;2022-09-09T03:51:29;2.35;;;1.38;;
60464;SDS011;46314;52.392;9.758;2022-09-09T03:53:57;3.20;;;1.70;;
60464;SDS011;46314;52.392;9.758;2022-09-09T03:56:24;3.20;;;1.52;;
60464;SDS011;46314;52.392;9.758;2022-09-09T03:58:50;4.57;;;1.85;;
60464;SDS011;46314;52.392;9.758;2022-09-09T04:01:17;3.53;;;1.58;;
60464;SDS011;46314;52.392;9.758;2022-09-09T04:03:43;2.65;;;1.73;;
60464;SDS011;46314;52.392;9.758;2022-09-09T04:06:10;5.03;;;1.70;;
60464;SDS011;46314;52.392;9.758;2022-09-09T04:08:38;3.28;;;1.80;;
60464;SDS011;46314;52.392;9.758;2022-09-09T04:11:06;3.78;;;1.95;;
60464;SDS011;46314;52.392;9.758;2022-09-09T04:13:32;3.15;;;1.88;;
60464;SDS011;46314;52.392;9.758;2022-09-09T04:15:59;6.22;;;2.40;;
60464;SDS011;46314;52.392;9.758;2022-09-09T04:18:27;4.63;;;2.08;;
60464;SDS011;46314;52.392;9.758;2022-09-09T04:20:54;5.07;;;1.83;;
60464;SDS011;46314;52.392;9.758;2022-09-09T04:23:20;2.47;;;1.60;;
60464;SDS011;46314;52.392;9.758;2022-09-09T04:25:47;4.63;;;1.90;;
60464;SDS011;46314;52.392;9.758;2022-09-09T04:28:17;3.78;;;1.92;;
60464;SDS011;46314;52.392;9.758;2022-09-09T04:30:44;5.45;;;2.00;;
60464;SDS011;46314;52.392;9.758;2022-09-09T04:33:11;3.22;;;1.63;;
60464;SDS011;46314;52.392;9.758;2022-09-09T04:35:39;2.30;;;1.55;;
60464;SDS011;46314;52.392;9.758;2022-09-09T04:38:10;3.05;;;1.75;;
60464;SDS011;46314;52.392;9.758;2022-09-09T04:40:37;1.88;;;1.58;;
60464;SDS011;46314;52.392;9.758;2022-09-09T04:43:03;5.45;;;1.75;;
60464;SDS011;46314;52.392;9.758;2022-09-09T04:45:31;7.85;;;2.35;;
60464;SDS011;46314;52.392;9.758;2022-09-09T04:47:57;3.88;;;1.77;;
60464;SDS011;46314;52.392;9.758;2022-09-09T04:50:24;2.50;;;1.75;;
60464;SDS011;46314;52.392;9.758;2022-09-09T04:52:50;3.45;;;2.13;;
60464;SDS011;46314;52.392;9.758;2022-09-09T04:55:17;6.45;;;2.10;;
60464;SDS011;46314;52.392;9.758;2022-09-09T04:57:43;3.67;;;2.30;;
60464;SDS011;46314;52.392;9.758;2022-09-09T05:00:10;4.07;;;2.10;;
60464;SDS011;46314;52.392;9.758;2022-09-09T05:02:38;3.17;;;1.83;;
60464;SDS011;46314;52.392;9.758;2022-09-09T05:05:06;2.75;;;1.70;;
60464;SDS011;46314;52.392;9.758;2022-09-09T05:07:32;5.30;;;2.08;;
60464;SDS011;46314;52.392;9.758;2022-09-09T05:09:59;5.80;;;2.00;;
60464;SDS011;46314;52.392;9.758;2022-09-09T05:12:25;3.80;;;2.13;;
60464;SDS011;46314;52.392;9.758;2022-09-09T05:14:52;4.07;;;1.85;;
60464;SDS011;46314;52.392;9.758;2022-09-09T05:17:18;5.57;;;1.90;;
60464;SDS011;46314;52.392;9.758;2022-09-09T05:19:46;3.25;;;2.30;;
60464;SDS011;46314;52.392;9.758;2022-09-09T05:22:12;7.68;;;2.58;;
60464;SDS011;46314;52.392;9.758;2022-09-09T05:24:39;4.45;;;2.63;;
60464;SDS011;46314;52.392;9.758;2022-09-09T05:27:05;5.05;;;2.45;;
60464;SDS011;46314;52.392;9.758;2022-09-09T05:29:31;6.85;;;2.42;;
60464;SDS011;46314;52.392;9.758;2022-09-09T05:31:59;5.63;;;2.15;;
60464;SDS011;46314;52.392;9.758;2022-09-09T05:34:28;4.30;;;2.78;;
60464;SDS011;46314;52.392;9.758;2022-09-09T05:36:56;5.20;;;2.30;;
60464;SDS011;46314;52.392;9.758;2022-09-09T05:39:22;6.57;;;2.42;;
60464;SDS011;46314;52.392;9.758;2022-09-09T05:41:49;4.80;;;2.25;;
60464;SDS011;46314;52.392;9.758;2022-09-09T05:44:15;5.95;;;2.10;;
60464;SDS011;46314;52.392;9.758;2022-09-09T05:46:42;4.70;;;2.47;;
60464;SDS011;46314;52.392;9.758;2022-09-09T05:49:08;7.30;;;3.13;;
60464;SDS011;46314;52.392;9.758;2022-09-09T05:51:34;4.68;;;2.30;;
60464;SDS011;46314;52.392;9.758;2022-09-09T05:54:02;4.53;;;1.73;;
60464;SDS011;46314;52.392;9.758;2022-09-09T05:56:29;5.57;;;2.13;;
60464;SDS011;46314;52.392;9.758;2022-09-09T05:58:56;4.70;;;2.40;;
60464;SDS011;46314;52.392;9.758;2022-09-09T06:01:23;5.30;;;2.38;;
60464;SDS011;46314;52.392;9.758;2022-09-09T06:03:51;7.88;;;3.22;;
60464;SDS011;46314;52.392;9.758;2022-09-09T06:06:18;6.78;;;2.30;;
60464;SDS011;46314;52.392;9.758;2022-09-09T06:08:46;5.75;;;2.42;;
60464;SDS011;46314;52.392;9.758;2022-09-09T06:11:14;3.13;;;2.25;;
60464;SDS011;46314;52.392;9.758;2022-09-09T06:13:42;6.60;;;2.55;;
60464;SDS011;46314;52.392;9.758;2022-09-09T06:16:09;4.22;;;2.08;;
60464;SDS011;46314;52.392;9.758;2022-09-09T06:18:37;5.72;;;2.72;;
60464;SDS011;46314;52.392;9.758;2022-09-09T06:21:04;5.80;;;2.50;;
60464;SDS011;46314;52.392;9.758;2022-09-09T06:23:32;3.90;;;2.25;;
60464;SDS011;46314;52.392;9.758;2022-09-09T06:26:00;6.68;;;3.08;;
60464;SDS011;46314;52.392;9.758;2022-09-09T06:28:29;6.30;;;2.55;;
60464;SDS011;46314;52.392;9.758;2022-09-09T06:30:58;4.82;;;2.22;;
60464;SDS011;46314;52.392;9.758;2022-09-09T06:33:25;5.50;;;2.40;;
60464;SDS011;46314;52.392;9.758;2022-09-09T06:35:52;6.18;;;2.13;;
60464;SDS011;46314;52.392;9.758;2022-09-09T06:38:18;4.90;;;2.40;;
60464;SDS011;46314;52.392;9.758;2022-09-09T06:40:50;6.38;;;2.63;;
60464;SDS011;46314;52.392;9.758;2022-09-09T06:43:17;4.72;;;2.20;;
60464;SDS011;46314;52.392;9.758;2022-09-09T06:45:45;5.50;;;2.40;;
60464;SDS011;46314;52.392;9.758;2022-09-09T06:48:18;4.15;;;2.55;;
60464;SDS011;46314;52.392;9.758;2022-09-09T06:50:45;5.63;;;2.60;;
60464;SDS011;46314;52.392;9.758;2022-09-09T06:53:11;4.75;;;2.03;;
60464;SDS011;46314;52.392;9.758;2022-09-09T06:55:38;4.38;;;2.47;;
60464;SDS011;46314;52.392;9.758;2022-09-09T06:58:07;4.25;;;2.10;;
60464;SDS011;46314;52.392;9.758;2022-09-09T07:00:34;4.43;;;2.50;;
60464;SDS011;46314;52.392;9.758;2022-09-09T07:03:02;10.10;;;2.65;;
60464;SDS011;46314;52.392;9.758;2022-09-09T07:05:28;4.00;;;2.70;;
60464;SDS011;46314;52.392;9.758;2022-09-09T07:07:55;5.22;;;2.60;;
60464;SDS011;46314;52.392;9.758;2022-09-09T07:10:21;3.88;;;2.50;;
60464;SDS011;46314;52.392;9.758;2022-09-09T07:12:50;4.20;;;2.38;;
60464;SDS011;46314;52.392;9.758;2022-09-09T07:15:17;2.42;;;2.17;;
60464;SDS011;46314;52.392;9.758;2022-09-09T07:17:43;4.72;;;2.33;;
60464;SDS011;46314;52.392;9.758;2022-09-09T07:20:11;4.55;;;2.58;;
60464;SDS011;46314;52.392;9.758;2022-09-09T07:22:38;4.45;;;2.60;;
60464;SDS011;46314;52.392;9.758;2022-09-09T07:25:05;4.60;;;2.45;;
60464;SDS011;46314;52.392;9.758;2022-09-09T07:27:32;3.55;;;2.47;;
60464;SDS011;46314;52.392;9.758;2022-09-09T07:29:58;5.15;;;2.28;;
60464;SDS011;46314;52.392;9.758;2022-09-09T07:32:24;6.07;;;2.80;;
60464;SDS011;46314;52.392;9.758;2022-09-09T07:34:51;5.85;;;2.63;;
60464;SDS011;46314;52.392;9.758;2022-09-09T07:37:19;6.40;;;2.60;;
60464;SDS011;46314;52.392;9.758;2022-09-09T07:39:45;7.07;;;2.47;;
60464;SDS011;46314;52.392;9.758;2022-09-09T07:42:12;5.15;;;2.00;;
60464;SDS011;46314;52.392;9.758;2022-09-09T07:44:38;5.00;;;2.35;;
60464;SDS011;46314;52.392;9.758;2022-09-09T07:47:05;5.43;;;2.30;;
60464;SDS011;46314;52.392;9.758;2022-09-09T07:49:31;7.05;;;2.80;;
60464;SDS011;46314;52.392;9.758;2022-09-09T07:51:58;3.70;;;2.35;;
60464;SDS011;46314;52.392;9.758;2022-09-09T07:54:26;7.63;;;2.33;;
60464;SDS011;46314;52.392;9.758;2022-09-09T07:56:52;4.25;;;2.20;;
60464;SDS011;46314;52.392;9.758;2022-09-09T07:59:19;5.30;;;2.63;;
60464;SDS011;46314;52.392;9.758;2022-09-09T08:01:46;3.78;;;2.45;;
60464;SDS011;46314;52.392;9.758;2022-09-09T08:04:15;6.13;;;2.42;;
60464;SDS011;46314;52.392;9.758;2022-09-09T08:06:45;5.47;;;2.85;;
60464;SDS011;46314;52.392;9.758;2022-09-09T08:09:13;5.80;;;2.53;;
60464;SDS011;46314;52.392;9.758;2022-09-09T08:11:42;4.13;;;2.75;;
60464;SDS011;46314;52.392;9.758;2022-09-09T08:14:09;6.07;;;2.30;;
60464;SDS011;46314;52.392;9.758;2022-09-09T08:16:37;3.80;;;2.30;;
60464;SDS011;46314;52.392;9.758;2022-09-09T08:19:05;7.70;;;2.70;;
60464;SDS011;46314;52.392;9.758;2022-09-09T08:21:31;2.78;;;1.80;;
60464;SDS011;46314;52.392;9.758;2022-09-09T08:24:00;4.82;;;2.15;;
60464;SDS011;46314;52.392;9.758;2022-09-09T08:26:27;7.20;;;2.90;;
60464;SDS011;46314;52.392;9.758;2022-09-09T08:28:57;6.22;;;1.85;;
60464;SDS011;46314;52.392;9.758;2022-09-09T08:31:25;6.28;;;2.33;;
60464;SDS011;46314;52.392;9.758;2022-09-09T08:33:53;4.90;;;2.17;;
60464;SDS011;46314;52.392;9.758;2022-09-09T08:36:21;4.22;;;2.20;;
60464;SDS011;46314;52.392;9.758;2022-09-09T08:38:49;3.38;;;1.83;;
60464;SDS011;46314;52.392;9.758;2022-09-09T08:41:22;5.00;;;1.90;;
60464;SDS011;46314;52.392;9.758;2022-09-09T08:44:02;5.47;;;2.05;;
60464;SDS011;46314;52.392;9.758;2022-09-09T08:46:33;3.90;;;1.80;;
60464;SDS011;46314;52.392;9.758;2022-09-09T08:49:12;4.95;;;2.22;;
60464;SDS011;46314;52.392;9.758;2022-09-09T08:51:48;5.20;;;1.85;;
60464;SDS011;46314;52.392;9.758;2022-09-09T08:54:15;4.25;;;1.70;;
60464;SDS011;46314;52.392;9.758;2022-09-09T08:57:02;2.75;;;1.55;;
60464;SDS011;46314;52.392;9.758;2022-09-09T08:59:39;7.20;;;2.22;;
60464;SDS011;46314;52.392;9.758;2022-09-09T09:02:07;4.38;;;2.35;;
60464;SDS011;46314;52.392;9.758;2022-09-09T09:04:45;2.95;;;1.50;;
60464;SDS011;46314;52.392;9.758;2022-09-09T09:07:25;4.28;;;1.80;;
60464;SDS011;46314;52.392;9.758;2022-09-09T09:10:01;6.78;;;2.55;;
60464;SDS011;46314;52.392;9.758;2022-09-09T09:12:40;5.68;;;2.08;;
60464;SDS011;46314;52.392;9.758;2022-09-09T09:15:14;3.70;;;1.83;;
60464;SDS011;46314;52.392;9.758;2022-09-09T09:17:43;4.60;;;2.35;;
60464;SDS011;46314;52.392;9.758;2022-09-09T09:20:11;3.10;;;1.75;;
60464;SDS011;46314;52.392;9.758;2022-09-09T09:22:40;4.45;;;2.33;;
60464;SDS011;46314;52.392;9.758;2022-09-09T09:25:14;2.97;;;1.60;;
60464;SDS011;46314;52.392;9.758;2022-09-09T09:27:46;5.80;;;2.25;;
60464;SDS011;46314;52.392;9.758;2022-09-09T09:30:21;4.72;;;1.80;;
60464;SDS011;46314;52.392;9.758;2022-09-09T09:32:56;7.63;;;1.80;;
60464;SDS011;46314;52.392;9.758;2022-09-09T09:35:27;5.20;;;2.33;;
60464;SDS011;46314;52.392;9.758;2022-09-09T09:37:53;4.72;;;2.08;;
60464;SDS011;46314;52.392;9.758;2022-09-09T09:40:47;3.10;;;1.70;;
60464;SDS011;46314;52.392;9.758;2022-09-09T09:43:17;5.05;;;1.70;;
60464;SDS011;46314;52.392;9.758;2022-09-09T09:45:47;5.05;;;1.95;;
60464;SDS011;46314;52.392;9.758;2022-09-09T09:48:33;6.38;;;1.65;;
60464;SDS011;46314;52.392;9.758;2022-09-09T09:51:02;4.50;;;1.58;;
60464;SDS011;46314;52.392;9.758;2022-09-09T09:53:34;5.00;;;2.00;;
60464;SDS011;46314;52.392;9.758;2022-09-09T09:56:05;5.43;;;1.63;;
60464;SDS011;46314;52.392;9.758;2022-09-09T09:58:36;3.88;;;1.90;;
60464;SDS011;46314;52.392;9.758;2022-09-09T10:01:19;2.72;;;1.60;;
60464;SDS011;46314;52.392;9.758;2022-09-09T10:03:49;4.00;;;1.70;;
60464;SDS011;46314;52.392;9.758;2022-09-09T10:06:28;5.85;;;1.92;;
60464;SDS011;46314;52.392;9.758;2022-09-09T10:08:55;4.50;;;1.70;;
60464;SDS011;46314;52.392;9.758;2022-09-09T10:11:25;3.92;;;1.70;;
60464;SDS011;46314;52.392;9.758;2022-09-09T10:14:05;3.03;;;1.70;;
60464;SDS011;46314;52.392;9.758;2022-09-09T10:16:47;3.75;;;1.98;;
60464;SDS011;46314;52.392;9.758;2022-09-09T10:19:27;7.03;;;2.50;;
60464;SDS011;46314;52.392;9.758;2022-09-09T10:24:33;7.82;;;2.78;;
60464;SDS011;46314;52.392;9.758;2022-09-09T10:27:20;5.05;;;2.35;;
60464;SDS011;46314;52.392;9.758;2022-09-09T10:29:57;4.18;;;2.20;;
60464;SDS011;46314;52.392;9.758;2022-09-09T10:32:33;8.45;;;2.63;;
60464;SDS011;46314;52.392;9.758;2022-09-09T10:35:04;7.05;;;2.13;;
60464;SDS011;46314;52.392;9.758;2022-09-09T10:37:40;8.13;;;2.57;;
60464;SDS011;46314;52.392;9.758;2022-09-09T10:40:17;4.53;;;2.17;;
60464;SDS011;46314;52.392;9.758;2022-09-09T10:42:53;6.82;;;1.95;;
60464;SDS011;46314;52.392;9.758;2022-09-09T10:45:30;4.13;;;2.25;;
60464;SDS011;46314;52.392;9.758;2022-09-09T10:48:05;6.70;;;2.50;;
60464;SDS011;46314;52.392;9.758;2022-09-09T10:50:53;4.47;;;2.53;;
60464;SDS011;46314;52.392;9.758;2022-09-09T10:53:36;3.28;;;1.75;;
60464;SDS011;46314;52.392;9.758;2022-09-09T10:56:11;7.82;;;2.10;;
60464;SDS011;46314;52.392;9.758;2022-09-09T10:58:42;3.38;;;2.30;;
60464;SDS011;46314;52.392;9.758;2022-09-09T11:01:15;5.95;;;1.75;;
60464;SDS011;46314;52.392;9.758;2022-09-09T11:03:51;4.72;;;2.22;;
60464;SDS011;46314;52.392;9.758;2022-09-09T11:06:22;5.47;;;3.08;;
60464;SDS011;46314;52.392;9.758;2022-09-09T11:08:55;3.95;;;1.95;;
60464;SDS011;46314;52.392;9.758;2022-09-09T11:11:25;6.57;;;2.45;;
60464;SDS011;46314;52.392;9.758;2022-09-09T11:13:55;6.60;;;1.88;;
60464;SDS011;46314;52.392;9.758;2022-09-09T11:16:28;4.32;;;2.08;;
60464;SDS011;46314;52.392;9.758;2022-09-09T11:18:59;6.50;;;1.98;;
60464;SDS011;46314;52.392;9.758;2022-09-09T11:21:31;2.85;;;1.60;;
60464;SDS011;46314;52.392;9.758;2022-09-09T11:24:04;5.97;;;2.17;;
60464;SDS011;46314;52.392;9.758;2022-09-09T11:26:37;7.47;;;2.42;;
60464;SDS011;46314;52.392;9.758;2022-09-09T11:29:12;4.88;;;1.90;;
60464;SDS011;46314;52.392;9.758;2022-09-09T11:31:57;4.75;;;2.45;;
60464;SDS011;46314;52.392;9.758;2022-09-09T11:34:37;4.38;;;2.20;;
60464;SDS011;46314;52.392;9.758;2022-09-09T11:37:15;7.75;;;2.72;;
60464;SDS011;46314;52.392;9.758;2022-09-09T11:40:07;6.20;;;2.20;;
60464;SDS011;46314;52.392;9.758;2022-09-09T11:42:40;7.15;;;2.30;;
60464;SDS011;46314;52.392;9.758;2022-09-09T11:45:11;6.10;;;2.10;;
60464;SDS011;46314;52.392;9.758;2022-09-09T11:47:51;4.60;;;1.50;;
60464;SDS011;46314;52.392;9.758;2022-09-09T11:50:28;5.63;;;1.75;;
60464;SDS011;46314;52.392;9.758;2022-09-09T11:53:03;4.40;;;1.15;;
60464;SDS011;46314;52.392;9.758;2022-09-09T11:55:32;2.38;;;1.40;;
60464;SDS011;46314;52.392;9.758;2022-09-09T11:58:00;4.03;;;1.75;;
60464;SDS011;46314;52.392;9.758;2022-09-09T12:00:29;4.75;;;1.80;;
60464;SDS011;46314;52.392;9.758;2022-09-09T12:02:59;5.97;;;1.67;;
60464;SDS011;46314;52.392;9.758;2022-09-09T12:05:35;3.90;;;1.30;;
60464;SDS011;46314;52.392;9.758;2022-09-09T12:08:05;6.82;;;1.63;;
60464;SDS011;46314;52.392;9.758;2022-09-09T12:10:35;3.53;;;1.60;;
60464;SDS011;46314;52.392;9.758;2022-09-09T12:13:07;4.43;;;1.60;;
60464;SDS011;46314;52.392;9.758;2022-09-09T12:15:46;5.68;;;1.55;;
60464;SDS011;46314;52.392;9.758;2022-09-09T12:18:14;4.50;;;1.67;;
60464;SDS011;46314;52.392;9.758;2022-09-09T12:20:52;2.80;;;1.50;;
60464;SDS011;46314;52.392;9.758;2022-09-09T12:23:25;3.22;;;1.55;;
60464;SDS011;46314;52.392;9.758;2022-09-09T12:26:00;4.20;;;1.25;;
60464;SDS011;46314;52.392;9.758;2022-09-09T12:28:40;2.70;;;1.50;;
60464;SDS011;46314;52.392;9.758;2022-09-09T12:31:15;3.00;;;1.25;;
60464;SDS011;46314;52.392;9.758;2022-09-09T12:33:47;2.40;;;1.50;;
60464;SDS011;46314;52.392;9.758;2022-09-09T12:36:15;2.00;;;1.17;;
60464;SDS011;46314;52.392;9.758;2022-09-09T12:38:45;1.92;;;1.10;;
60464;SDS011;46314;52.392;9.758;2022-09-09T12:41:18;2.20;;;1.40;;
60464;SDS011;46314;52.392;9.758;2022-09-09T12:43:46;4.60;;;1.13;;
60464;SDS011;46314;52.392;9.758;2022-09-09T12:46:16;2.28;;;1.10;;
60464;SDS011;46314;52.392;9.758;2022-09-09T12:48:55;3.05;;;1.25;;
60464;SDS011;46314;52.392;9.758;2022-09-09T12:51:26;3.20;;;1.30;;
60464;SDS011;46314;52.392;9.758;2022-09-09T12:53:54;3.47;;;1.27;;
60464;SDS011;46314;52.392;9.758;2022-09-09T12:56:22;2.08;;;0.93;;
60464;SDS011;46314;52.392;9.758;2022-09-09T12:58:51;3.05;;;1.00;;
60464;SDS011;46314;52.392;9.758;2022-09-09T13:01:20;1.48;;;0.93;;
60464;SDS011;46314;52.392;9.758;2022-09-09T13:03:48;1.40;;;0.98;;
60464;SDS011;46314;52.392;9.758;2022-09-09T13:06:19;3.75;;;1.27;;
60464;SDS011;46314;52.392;9.758;2022-09-09T13:08:55;3.85;;;1.23;;
60464;SDS011;46314;52.392;9.758;2022-09-09T13:11:26;2.22;;;1.48;;
60464;SDS011;46314;52.392;9.758;2022-09-09T13:13:56;2.10;;;0.90;;
60464;SDS011;46314;52.392;9.758;2022-09-09T13:16:25;4.50;;;1.02;;
60464;SDS011;46314;52.392;9.758;2022-09-09T13:18:54;4.95;;;1.83;;
60464;SDS011;46314;52.392;9.758;2022-09-09T13:21:30;2.05;;;1.38;;
60464;SDS011;46314;52.392;9.758;2022-09-09T13:24:00;3.80;;;1.00;;
60464;SDS011;46314;52.392;9.758;2022-09-09T13:26:26;3.85;;;1.25;;
60464;SDS011;46314;52.392;9.758;2022-09-09T13:28:53;2.90;;;1.35;;
60464;SDS011;46314;52.392;9.758;2022-09-09T13:31:21;3.38;;;1.25;;
60464;SDS011;46314;52.392;9.758;2022-09-09T13:33:49;4.20;;;1.48;;
60464;SDS011;46314;52.392;9.758;2022-09-09T13:36:16;2.70;;;1.10;;
60464;SDS011;46314;52.392;9.758;2022-09-09T13:38:54;4.82;;;1.55;;
60464;SDS011;46314;52.392;9.758;2022-09-09T13:41:24;2.75;;;1.35;;
60464;SDS011;46314;52.392;9.758;2022-09-09T13:43:51;4.72;;;1.83;;
60464;SDS011;46314;52.392;9.758;2022-09-09T13:46:32;4.53;;;1.85;;
60464;SDS011;46314;52.392;9.758;2022-09-09T13:49:01;4.20;;;1.58;;
60464;SDS011;46314;52.392;9.758;2022-09-09T13:51:45;3.58;;;1.77;;
60464;SDS011;46314;52.392;9.758;2022-09-09T13:54:13;4.68;;;1.30;;
60464;SDS011;46314;52.392;9.758;2022-09-09T13:56:42;3.85;;;1.65;;
60464;SDS011;46314;52.392;9.758;2022-09-09T13:59:10;4.38;;;1.85;;
60464;SDS011;46314;52.392;9.758;2022-09-09T14:01:38;4.72;;;1.20;;
60464;SDS011;46314;52.392;9.758;2022-09-09T14:04:05;3.03;;;1.45;;
60464;SDS011;46314;52.392;9.758;2022-09-09T14:06:31;3.90;;;1.73;;
60464;SDS011;46314;52.392;9.758;2022-09-09T14:08:58;3.25;;;1.33;;
60464;SDS011;46314;52.392;9.758;2022-09-09T14:11:24;3.72;;;1.75;;
60464;SDS011;46314;52.392;9.758;2022-09-09T14:13:52;2.78;;;1.65;;
60464;SDS011;46314;52.392;9.758;2022-09-09T14:16:19;5.00;;;1.63;;
60464;SDS011;46314;52.392;9.758;2022-09-09T14:18:45;3.42;;;1.40;;
60464;SDS011;46314;52.392;9.758;2022-09-09T14:21:12;5.18;;;1.40;;
60464;SDS011;46314;52.392;9.758;2022-09-09T14:23:38;4.15;;;1.25;;
60464;SDS011;46314;52.392;9.758;2022-09-09T14:26:05;3.25;;;1.65;;
60464;SDS011;46314;52.392;9.758;2022-09-09T14:28:32;1.85;;;1.48;;
60464;SDS011;46314;52.392;9.758;2022-09-09T14:31:20;2.90;;;1.63;;
60464;SDS011;46314;52.392;9.758;2022-09-09T14:33:46;5.28;;;1.70;;
60464;SDS011;46314;52.392;9.758;2022-09-09T14:36:13;5.05;;;1.58;;
60464;SDS011;46314;52.392;9.758;2022-09-09T14:38:39;2.35;;;1.45;;
60464;SDS011;46314;52.392;9.758;2022-09-09T14:41:06;5.20;;;1.70;;
60464;SDS011;46314;52.392;9.758;2022-09-09T14:43:33;3.40;;;1.55;;
60464;SDS011;46314;52.392;9.758;2022-09-09T14:46:04;4.97;;;1.67;;
60464;SDS011;46314;52.392;9.758;2022-09-09T14:48:32;3.03;;;1.25;;
60464;SDS011;46314;52.392;9.758;2022-09-09T14:51:04;4.15;;;1.30;;
60464;SDS011;46314;52.392;9.758;2022-09-09T14:53:31;1.95;;;1.15;;
60464;SDS011;46314;52.392;9.758;2022-09-09T14:56:02;2.72;;;1.42;;
60464;SDS011;46314;52.392;9.758;2022-09-09T14:58:30;3.72;;;1.55;;
60464;SDS011;46314;52.392;9.758;2022-09-09T15:01:01;3.58;;;1.35;;
60464;SDS011;46314;52.392;9.758;2022-09-09T15:03:28;2.03;;;1.23;;
60464;SDS011;46314;52.392;9.758;2022-09-09T15:05:56;2.75;;;1.10;;
60464;SDS011;46314;52.392;9.758;2022-09-09T15:08:22;4.88;;;1.50;;
60464;SDS011;46314;52.392;9.758;2022-09-09T15:10:49;3.33;;;1.15;;
60464;SDS011;46314;52.392;9.758;2022-09-09T15:13:15;3.22;;;1.38;;